Time;durP1;ratioP1;P1;durP2;ratioP2;P2;SDS_P1;SDS_P2;PMS_P1;PMS_P2;Temp;Humidity;BMP_temperature;BMP_pressure;BME280_temperature;BME280_humidity;BME280_pressure;Samples;Min_cycle;Max_cycle;Signal;HPM_P1;HPM_P2
2021/11/25 00:01:21;;;;;;;18.55;10.95;;;;;;;-3.15;100.00;101355.70;1702462;82;21057;-61
2021/11/25 00:05:00;;;;;;;19.40;10.98;;;;;;;-3.27;100.00;101354.52;1685629;82;20902;-64
2021/11/25 00:07:30;;;;;;;21.25;10.82;;;;;;;-3.30;100.00;101350.83;1666238;84;21027;-62
2021/11/25 00:09:58;;;;;;;23.45;9.98;;;;;;;-3.37;100.00;101345.19;1665187;84;21592;-62
2021/11/25 00:12:27;;;;;;;15.60;8.28;;;;;;;-3.22;100.00;101338.56;1664595;84;21112;-63
2021/11/25 00:14:56;;;;;;;17.48;9.20;;;;;;;-3.26;100.00;101331.95;1664901;84;21016;-69
2021/11/25 00:17:24;;;;;;;20.37;11.65;;;;;;;-2.86;100.00;101336.09;1660981;84;21082;-63
2021/11/25 00:19:53;;;;;;;21.15;10.60;;;;;;;-3.08;100.00;101340.52;1667629;84;21114;-61
2021/11/25 00:22:21;;;;;;;18.12;9.25;;;;;;;-3.07;100.00;101339.19;1682881;84;20963;-61
2021/11/25 00:24:49;;;;;;;21.07;12.80;;;;;;;-2.81;100.00;101335.88;1690392;84;21187;-64
2021/11/25 00:27:17;;;;;;;23.18;12.90;;;;;;;-2.66;100.00;101331.34;1692320;84;20912;-61
2021/11/25 00:29:45;;;;;;;22.50;12.80;;;;;;;-2.56;100.00;101336.85;1694009;84;21050;-61
2021/11/25 00:32:14;;;;;;;25.68;14.98;;;;;;;-2.51;100.00;101334.90;1694325;84;21013;-63
2021/11/25 00:34:42;;;;;;;29.40;17.12;;;;;;;-1.98;100.00;101327.65;1694284;84;20980;-69
2021/11/25 00:37:09;;;;;;;32.80;18.00;;;;;;;-1.98;100.00;101327.65;1692948;84;21322;-68
2021/11/25 00:39:38;;;;;;;31.17;16.62;;;;;;;-1.90;100.00;101332.37;1693813;84;21069;-61
2021/11/25 00:42:08;;;;;;;32.55;18.05;;;;;;;-1.53;100.00;101330.07;1676897;84;20987;-61
2021/11/25 00:44:36;;;;;;;30.68;17.75;;;;;;;-1.40;100.00;101322.16;1694545;84;20967;-66
2021/11/25 00:47:04;;;;;;;31.80;16.95;;;;;;;-1.23;100.00;101314.41;1699755;83;21506;-67
2021/11/25 00:49:33;;;;;;;27.73;15.85;;;;;;;-1.15;100.00;101316.55;1699829;83;21697;-62
2021/11/25 00:52:01;;;;;;;29.80;16.93;;;;;;;-1.02;100.00;101326.52;1699700;83;21030;-62
2021/11/25 00:54:29;;;;;;;32.38;16.27;;;;;;;-0.82;100.00;101316.48;1700104;83;20905;-71
2021/11/25 00:56:58;;;;;;;25.50;15.20;;;;;;;-0.68;100.00;101319.58;1700080;83;21128;-62
2021/11/25 00:59:26;;;;;;;21.75;13.15;;;;;;;-0.62;100.00;101323.06;1700209;83;20977;-62
2021/11/25 01:01:53;;;;;;;20.65;12.10;;;;;;;-0.40;100.00;101319.31;1700216;83;21191;-60
2021/11/25 01:04:23;;;;;;;18.57;10.75;;;;;;;-0.83;100.00;101314.84;1717091;82;21070;-67
2021/11/25 01:06:51;;;;;;;19.40;10.15;;;;;;;-0.28;100.00;101311.75;1732044;81;21105;-61
2021/11/25 01:09:18;;;;;;;16.00;8.95;;;;;;;-0.08;98.37;101308.50;1731611;82;21038;-65
2021/11/25 01:11:47;;;;;;;19.30;9.73;;;;;;;-0.01;96.82;101309.80;1731599;81;21002;-62
2021/11/25 01:14:15;;;;;;;15.13;9.55;;;;;;;-0.01;96.96;101308.52;1732486;82;21107;-69
2021/11/25 01:16:43;;;;;;;18.67;10.58;;;;;;;0.01;97.42;101309.27;1731103;81;20999;-61
2021/11/25 01:19:11;;;;;;;16.27;10.00;;;;;;;0.17;96.50;101306.17;1732744;81;21098;-67
2021/11/25 01:21:40;;;;;;;16.10;9.53;;;;;;;0.59;91.69;101298.11;1712498;82;20901;-60
2021/11/25 01:24:08;;;;;;;19.50;9.73;;;;;;;0.83;88.44;101300.09;1699782;83;21047;-60
2021/11/25 01:26:36;;;;;;;16.67;9.70;;;;;;;0.93;86.28;101298.15;1722093;83;21132;-60
2021/11/25 01:29:04;;;;;;;14.90;8.73;;;;;;;0.94;85.80;101305.39;1721935;82;21078;-62
2021/11/25 01:31:31;;;;;;;17.70;9.08;;;;;;;1.11;84.17;101302.60;1722149;83;21077;-62
2021/11/25 01:33:58;;;;;;;15.40;8.98;;;;;;;0.97;82.45;101296.22;1722279;83;21085;-62
2021/11/25 01:36:26;;;;;;;17.73;9.15;;;;;;;0.97;83.21;101296.22;1722408;83;21474;-70
2021/11/25 01:38:53;;;;;;;18.00;10.40;;;;;;;1.01;83.85;101300.23;1722200;81;21121;-61
2021/11/25 01:41:20;;;;;;;19.10;10.18;;;;;;;0.91;84.24;101295.30;1722562;83;22026;-61
2021/11/25 01:43:49;;;;;;;17.17;10.10;;;;;;;0.90;84.24;101296.23;1721343;83;20896;-64
2021/11/25 01:46:18;;;;;;;22.25;11.08;;;;;;;0.95;84.01;101289.09;1722854;83;21571;-71
2021/11/25 01:48:48;;;;;;;21.17;11.63;;;;;;;1.21;81.31;101297.27;1721860;83;20947;-60
2021/11/25 01:51:18;;;;;;;18.65;11.57;;;;;;;1.17;80.94;101297.06;1723103;83;21203;-60
2021/11/25 01:53:45;;;;;;;19.15;11.33;;;;;;;1.28;80.06;101308.41;1721228;83;21046;-60
2021/11/25 01:56:14;;;;;;;19.82;10.70;;;;;;;1.50;78.49;101302.73;1722301;83;21161;-62
2021/11/25 01:58:42;;;;;;;22.22;11.48;;;;;;;1.49;76.12;101309.62;1721749;83;20986;-61
2021/11/25 02:01:11;;;;;;;19.35;11.33;;;;;;;1.73;74.91;101306.39;1722029;81;21074;-60
2021/11/25 02:03:38;;;;;;;21.48;10.98;;;;;;;1.62;75.02;101311.75;1693744;82;21155;-68
2021/11/25 02:06:06;;;;;;;19.37;11.90;;;;;;;1.66;76.06;101321.37;1713726;83;21035;-63
2021/11/25 02:08:33;;;;;;;20.40;10.93;;;;;;;1.80;75.07;101317.92;1756588;80;21509;-60
2021/11/25 02:11:03;;;;;;;18.75;9.80;;;;;;;1.82;74.61;101317.34;1755470;81;21058;-61
2021/11/25 02:13:31;;;;;;;23.42;11.73;;;;;;;2.01;73.74;101313.95;1738485;81;21051;-65
2021/11/25 02:15:58;;;;;;;19.37;10.78;;;;;;;2.06;72.12;101317.03;1754199;81;21111;-60
2021/11/25 02:18:26;;;;;;;19.37;10.85;;;;;;;2.13;72.46;101321.31;1718190;83;21000;-69
2021/11/25 02:20:57;;;;;;;19.07;11.50;;;;;;;2.28;71.17;101308.70;1750499;81;21075;-61
2021/11/25 02:23:24;;;;;;;18.30;10.80;;;;;;;2.38;70.07;101316.61;1747114;81;20944;-70
2021/11/25 02:25:51;;;;;;;19.45;10.82;;;;;;;2.38;69.21;101306.31;1755068;81;20936;-63
2021/11/25 02:28:28;;;;;;;20.02;10.95;;;;;;;2.09;69.92;101310.87;1755567;81;21162;-69
2021/11/25 02:30:55;;;;;;;18.77;11.93;;;;;;;2.02;71.20;101313.02;1755489;81;21043;-60
2021/11/25 02:33:23;;;;;;;17.67;10.45;;;;;;;2.12;70.49;101316.63;1755779;81;21067;-69
2021/11/25 02:35:52;;;;;;;18.67;11.60;;;;;;;2.03;70.21;101314.66;1755527;81;20979;-62
2021/11/25 02:38:19;;;;;;;18.90;12.30;;;;;;;2.12;69.60;101320.49;1755470;81;20933;-61
2021/11/25 02:40:51;;;;;;;19.35;11.90;;;;;;;2.07;68.55;101318.66;1755165;81;21154;-60
2021/11/25 02:43:24;;;;;;;21.85;11.53;;;;;;;1.90;69.27;101324.12;1755605;81;20920;-61
2021/11/25 02:45:57;;;;;;;24.77;13.05;;;;;;;1.96;69.12;101322.41;1755507;81;23010;-68
2021/11/25 02:48:32;;;;;;;19.23;11.57;;;;;;;1.65;69.49;101312.84;1755450;81;21297;-61
2021/11/25 02:51:00;;;;;;;24.27;13.22;;;;;;;1.46;72.00;101318.81;1755116;81;21008;-61
2021/11/25 02:53:30;;;;;;;21.27;12.93;;;;;;;1.37;72.57;101315.55;1756552;81;21855;-62
2021/11/25 02:56:00;;;;;;;20.57;11.65;;;;;;;1.49;71.95;101321.66;1755120;81;20972;-60
2021/11/25 02:58:27;;;;;;;22.75;12.30;;;;;;;1.40;71.60;101307.20;1755764;81;21687;-60
2021/11/25 03:00:58;;;;;;;20.17;12.88;;;;;;;1.36;72.93;101307.00;1754566;81;20932;-61
2021/11/25 03:03:26;;;;;;;22.62;12.37;;;;;;;1.38;72.63;101312.06;1756189;81;20980;-61
2021/11/25 03:05:53;;;;;;;21.42;12.65;;;;;;;1.43;71.75;101307.44;1719978;81;22338;-62
2021/11/25 03:08:22;;;;;;;23.55;13.18;;;;;;;1.49;71.48;101312.20;1718605;83;21077;-61
2021/11/25 03:10:53;;;;;;;24.63;13.55;;;;;;;1.15;73.01;101314.33;1717559;81;20908;-64
2021/11/25 03:13:22;;;;;;;21.60;13.18;;;;;;;0.99;75.05;101314.11;1719120;83;21030;-60
2021/11/25 03:15:49;;;;;;;23.62;14.13;;;;;;;0.97;77.54;101315.47;1717501;83;20907;-60
2021/11/25 03:18:19;;;;;;;22.40;13.22;;;;;;;1.07;77.09;101307.57;1718830;83;21154;-61
2021/11/25 03:20:48;;;;;;;25.37;13.78;;;;;;;0.90;78.43;101318.87;1717621;82;20994;-65
2021/11/25 03:23:16;;;;;;;28.98;15.30;;;;;;;1.02;78.18;101317.28;1718666;83;21615;-61
2021/11/25 03:25:44;;;;;;;33.35;16.27;;;;;;;0.99;78.74;101315.39;1717485;83;21513;-62
2021/11/25 03:28:11;;;;;;;23.55;14.87;;;;;;;1.09;78.44;101319.84;1718733;83;20997;-64
2021/11/25 03:30:39;;;;;;;28.50;15.55;;;;;;;1.28;77.38;101318.22;1718256;81;21156;-65
2021/11/25 03:33:07;;;;;;;24.67;15.45;;;;;;;1.48;75.80;101318.70;1700795;82;21091;-68
2021/11/25 03:35:36;;;;;;;28.47;15.08;;;;;;;1.47;74.75;101316.59;1732813;82;22239;-61
2021/11/25 03:40:46;;;;;;;24.27;14.18;;;;;;;1.42;74.64;101306.62;1674641;84;21535;-70
2021/11/25 03:43:13;;;;;;;24.90;13.98;;;;;;;0.85;81.57;101313.66;1670227;85;21814;-62
2021/11/25 03:45:42;;;;;;;24.98;14.55;;;;;;;1.07;81.47;101311.42;1644255;85;21014;-62
2021/11/25 03:48:10;;;;;;;23.95;13.80;;;;;;;0.84;83.68;101306.89;1626006;87;21027;-63
2021/11/25 03:50:37;;;;;;;28.25;14.78;;;;;;;1.30;80.95;101307.87;1647009;86;21007;-70
2021/11/25 03:53:05;;;;;;;30.15;15.90;;;;;;;1.27;80.02;101307.59;1609091;87;21705;-62
2021/11/25 03:55:34;;;;;;;26.40;15.03;;;;;;;1.33;78.45;101313.64;1623328;87;21086;-61
2021/11/25 03:58:01;;;;;;;28.30;14.50;;;;;;;1.27;77.70;101309.34;1622122;87;21014;-62
2021/11/25 04:00:31;;;;;;;28.50;13.78;;;;;;;1.29;78.15;101312.19;1620382;82;21607;-70
2021/11/25 04:03:00;;;;;;;28.15;14.85;;;;;;;0.98;81.30;101310.69;1646090;85;21091;-62
2021/11/25 04:05:27;;;;;;;26.27;15.00;;;;;;;0.90;83.91;101309.06;1668676;85;21070;-61
2021/11/25 04:07:54;;;;;;;24.15;13.32;;;;;;;0.87;85.40;101314.38;1695625;83;21242;-63
2021/11/25 04:10:21;;;;;;;26.90;14.65;;;;;;;0.82;87.34;101316.41;1694197;82;21602;-64
2021/11/25 04:12:50;;;;;;;28.83;15.65;;;;;;;0.67;90.79;101316.42;1694508;82;21100;-63
2021/11/25 04:15:18;;;;;;;29.02;15.88;;;;;;;0.94;89.27;101315.66;1694975;83;21050;-61
2021/11/25 04:17:46;;;;;;;25.82;14.20;;;;;;;1.01;88.44;101322.06;1695331;84;20962;-61
2021/11/25 04:20:14;;;;;;;25.05;14.58;;;;;;;1.01;88.50;101318.21;1694788;84;21175;-69
2021/11/25 04:22:42;;;;;;;27.73;14.30;;;;;;;1.07;87.16;101312.70;1694558;84;21017;-70
2021/11/25 04:25:09;;;;;;;26.68;15.65;;;;;;;1.18;86.81;101315.89;1694078;83;21138;-61
2021/11/25 04:27:37;;;;;;;28.60;15.65;;;;;;;1.05;85.52;101315.00;1696224;82;20998;-61
2021/11/25 04:30:47;;;;;;;28.65;15.20;;;;;;;1.03;85.57;101317.67;1700361;81;21507;-64
2021/11/25 04:35:30;;;;;;;30.90;15.20;;;;;;;1.14;83.46;101323.42;1700765;83;20972;-62
2021/11/25 04:38:04;;;;;;;26.57;15.83;;;;;;;1.09;83.50;101324.97;1700110;83;20993;-70
2021/11/25 04:40:39;;;;;;;28.47;15.25;;;;;;;1.14;83.47;101326.81;1700667;83;21513;-60
2021/11/25 04:43:07;;;;;;;30.60;16.27;;;;;;;1.20;83.02;101332.83;1680396;83;21488;-63
2021/11/25 04:45:36;;;;;;;33.58;18.62;;;;;;;1.51;80.30;101334.75;1700358;83;22100;-67
2021/11/25 04:48:04;;;;;;;32.55;17.65;;;;;;;0.09;85.31;101337.84;1700310;83;21003;-62
2021/11/25 04:50:31;;;;;;;29.57;16.48;;;;;;;-1.32;100.00;101335.82;1701596;83;21027;-61
2021/11/25 04:53:00;;;;;;;27.10;15.18;;;;;;;-1.31;100.00;101341.30;1681195;84;21502;-63
2021/11/25 04:55:28;;;;;;;31.45;16.12;;;;;;;-1.45;100.00;101341.18;1687510;82;21102;-62
2021/11/25 04:57:57;;;;;;;25.02;14.65;;;;;;;-1.24;100.00;101340.90;1698329;84;21374;-66
2021/11/25 05:00:25;;;;;;;27.48;15.00;;;;;;;-1.33;100.00;101346.94;1699091;82;21618;-63
2021/11/25 05:02:53;;;;;;;33.30;17.75;;;;;;;-1.10;100.00;101339.33;1690326;83;21011;-64
2021/11/25 05:05:22;;;;;;;34.60;17.73;;;;;;;-1.11;100.00;101345.36;1734473;82;20924;-64
2021/11/25 05:07:50;;;;;;;31.12;16.30;;;;;;;-1.11;100.00;101349.20;1701541;82;20927;-70
2021/11/25 05:10:17;;;;;;;29.60;15.95;;;;;;;-0.93;100.00;101348.23;1733395;82;21115;-69
2021/11/25 05:12:45;;;;;;;32.67;16.65;;;;;;;-0.90;100.00;101353.64;1705927;82;21076;-62
2021/11/25 05:15:14;;;;;;;29.10;16.25;;;;;;;-0.79;100.00;101357.28;1680975;83;20970;-60
2021/11/25 05:17:41;;;;;;;27.95;16.80;;;;;;;-0.63;100.00;101359.83;1674731;84;21061;-61
2021/11/25 05:20:11;;;;;;;29.40;17.27;;;;;;;-0.45;100.00;101355.44;1729942;80;21769;-61
2021/11/25 05:22:38;;;;;;;32.30;16.95;;;;;;;-0.14;100.00;101349.41;1734771;82;21162;-61
2021/11/25 05:25:08;;;;;;;26.48;16.37;;;;;;;0.15;100.00;101347.75;1726915;80;21569;-61
2021/11/25 05:27:36;;;;;;;30.23;16.73;;;;;;;0.54;100.00;101347.59;1729028;80;21051;-60
2021/11/25 05:30:04;;;;;;;57.65;30.25;;;;;;;1.07;100.00;101356.82;1703021;83;21026;-59
2021/11/25 05:32:32;;;;;;;78.97;37.83;;;;;;;1.66;100.00;101356.89;1682849;83;21000;-58
2021/11/25 05:35:02;;;;;;;49.40;28.95;;;;;;;2.77;100.00;101351.70;1702424;82;21225;-60
2021/11/25 05:37:32;;;;;;;60.00;45.55;;;;;;;3.40;100.00;101358.87;1734625;82;20940;-59
2021/11/25 05:39:59;;;;;;;46.25;27.60;;;;;;;3.26;96.08;101356.44;1735788;80;20916;-71
2021/11/25 05:42:26;;;;;;;30.65;20.27;;;;;;;3.90;97.42;101353.94;1734130;81;21080;-60
2021/11/25 05:44:54;;;;;;;34.70;19.57;;;;;;;4.70;88.00;101356.13;1734459;82;21094;-61
2021/11/25 05:47:22;;;;;;;44.10;31.77;;;;;;;5.25;78.07;101353.95;1734792;81;21181;-60
2021/11/25 05:49:51;;;;;;;33.38;23.30;;;;;;;5.68;70.44;101363.45;1731521;81;20925;-70
2021/11/25 05:52:19;;;;;;;33.48;20.20;;;;;;;5.88;67.25;101359.27;1730552;81;21047;-60
2021/11/25 05:54:46;;;;;;;30.62;19.73;;;;;;;6.21;63.55;101357.45;1730856;81;20954;-60
2021/11/25 05:57:14;;;;;;;31.65;19.02;;;;;;;6.20;59.81;101357.11;1731316;81;20979;-61
2021/11/25 05:59:42;;;;;;;29.95;18.92;;;;;;;5.89;58.46;101357.02;1731470;81;21112;-62
2021/11/25 06:02:11;;;;;;;29.95;19.75;;;;;;;5.66;58.07;101361.47;1707841;82;21012;-61
2021/11/25 06:04:40;;;;;;;33.50;19.75;;;;;;;5.42;57.42;101361.69;1735861;80;21034;-60
2021/11/25 06:07:09;;;;;;;33.23;20.95;;;;;;;5.28;57.45;101358.08;1709331;82;21061;-59
2021/11/25 06:09:39;;;;;;;33.13;19.27;;;;;;;5.19;57.04;101364.80;1700384;84;21017;-62
2021/11/25 06:12:07;;;;;;;58.28;39.73;;;;;;;4.97;57.71;101366.13;1689963;84;21172;-70
2021/11/25 06:14:34;;;;;;;38.08;22.27;;;;;;;4.80;58.02;101369.52;1688954;82;22363;-61
2021/11/25 06:17:04;;;;;;;40.90;24.87;;;;;;;4.62;58.92;101371.77;1674084;83;21564;-58
2021/11/25 06:19:32;;;;;;;34.92;22.00;;;;;;;4.42;60.26;101373.73;1719295;82;21578;-64
2021/11/25 06:21:59;;;;;;;37.50;21.68;;;;;;;4.45;61.60;101368.81;1732906;80;21039;-59
2021/11/25 06:24:26;;;;;;;36.60;23.27;;;;;;;4.30;62.62;101376.77;1694537;82;21126;-59
2021/11/25 06:26:55;;;;;;;35.58;22.93;;;;;;;4.41;63.54;101373.39;1701028;83;21099;-60
2021/11/25 06:29:22;;;;;;;38.55;24.25;;;;;;;4.43;63.89;101374.08;1679608;83;20991;-59
2021/11/25 06:31:51;;;;;;;42.78;24.30;;;;;;;2.84;74.69;101382.53;1726094;80;21525;-60
2021/11/25 06:34:18;;;;;;;33.80;21.73;;;;;;;2.77;82.25;101381.77;1723675;80;21010;-60
2021/11/25 06:36:46;;;;;;;34.73;21.57;;;;;;;2.75;84.56;101383.14;1716679;80;21153;-59
2021/11/25 06:39:14;;;;;;;30.25;18.82;;;;;;;2.79;87.01;101391.48;1701076;82;22222;-60
2021/11/25 06:41:41;;;;;;;30.02;18.23;;;;;;;3.01;86.68;101390.84;1690594;82;21549;-61
2021/11/25 06:44:08;;;;;;;30.48;20.23;;;;;;;2.97;87.10;101387.66;1709115;80;21562;-67
2021/11/25 06:46:37;;;;;;;28.32;16.95;;;;;;;;;;1724950;81;21088;-60
2021/11/25 06:49:04;;;;;;;28.75;17.70;;;;;;;2.77;91.78;101392.89;1733911;80;21174;-58
2021/11/25 06:51:31;;;;;;;30.77;19.82;;;;;;;2.74;95.13;101398.24;1732049;80;20999;-69
2021/11/25 06:54:01;;;;;;;30.15;18.02;;;;;;;2.67;98.22;101399.11;1704780;80;21085;-69
2021/11/25 06:56:28;;;;;;;33.70;20.85;;;;;;;2.79;97.97;101391.48;1733242;80;21112;-60
2021/11/25 06:58:56;;;;;;;32.08;20.62;;;;;;;2.85;97.42;101392.36;1733127;80;21331;-61
2021/11/25 07:01:28;;;;;;;35.45;20.40;;;;;;;2.95;98.22;101398.98;1700080;82;22224;-67
2021/11/25 07:03:52;;;;;;;31.30;18.73;;;;;;;3.11;99.01;101404.27;1730885;80;22417;-61
2021/11/25 07:06:22;;;;;;;28.98;18.70;;;;;;;3.35;97.08;101399.14;1731739;80;20963;-59
2021/11/25 07:08:51;;;;;;;28.10;17.52;;;;;;;3.50;95.79;101401.11;1717887;80;21396;-61
2021/11/25 07:11:19;;;;;;;31.52;17.50;;;;;;;3.61;94.26;101399.87;1727439;80;21020;-68
2021/11/25 07:13:48;;;;;;;29.50;16.93;;;;;;;3.71;94.90;101401.31;1721369;81;21231;-67
2021/11/25 07:16:16;;;;;;;27.15;17.25;;;;;;;3.93;92.80;101397.19;1726046;80;21080;-60
2021/11/25 07:18:44;;;;;;;30.57;18.02;;;;;;;4.03;91.60;101397.70;1719930;80;21857;-61
2021/11/25 07:21:12;;;;;;;29.75;18.35;;;;;;;4.07;90.49;101399.13;1706449;82;21081;-63
2021/11/25 07:23:39;;;;;;;29.05;18.32;;;;;;;4.22;88.15;101390.72;1706007;81;21374;-61
2021/11/25 07:26:08;;;;;;;27.48;18.35;;;;;;;4.56;85.40;101396.76;1732862;81;22464;-60
2021/11/25 07:28:36;;;;;;;32.50;19.37;;;;;;;4.63;85.18;101388.91;1686752;83;21091;-60
2021/11/25 07:31:05;;;;;;;30.30;18.80;;;;;;;4.96;81.80;101384.66;1671372;83;21025;-62
2021/11/25 07:33:35;;;;;;;31.70;20.15;;;;;;;4.91;80.75;101392.42;1647375;83;21073;-59
2021/11/25 07:36:02;;;;;;;27.20;17.23;;;;;;;4.88;81.65;101389.59;1665744;83;21099;-71
2021/11/25 07:38:30;;;;;;;28.15;18.55;;;;;;;4.87;82.55;101391.36;1661957;83;22540;-64
2021/11/25 07:40:59;;;;;;;28.45;18.67;;;;;;;4.94;80.90;101396.89;1728398;80;20999;-59
2021/11/25 07:43:27;;;;;;;30.68;19.48;;;;;;;5.01;82.07;101396.77;1665866;83;21040;-60
2021/11/25 07:45:56;;;;;;;29.30;18.85;;;;;;;5.19;79.43;101396.26;1693997;83;21072;-64
2021/11/25 07:48:23;;;;;;;28.87;18.37;;;;;;;5.45;75.88;101397.62;1670021;83;21139;-61
2021/11/25 07:50:51;;;;;;;27.42;18.40;;;;;;;5.57;73.54;101395.84;1672659;83;21521;-63
2021/11/25 07:53:20;;;;;;;42.78;21.12;;;;;;;5.70;72.46;101394.38;1677444;83;21066;-64
2021/11/25 07:55:48;;;;;;;34.40;21.48;;;;;;;5.13;73.73;101384.17;1676000;83;21513;-71
2021/11/25 07:58:17;;;;;;;31.35;20.50;;;;;;;5.10;80.02;101386.18;1679426;83;21703;-64
2021/11/25 08:00:46;;;;;;;33.73;20.17;;;;;;;5.25;81.16;101378.98;1691080;84;21024;-62
2021/11/25 08:03:15;;;;;;;31.68;18.95;;;;;;;5.60;82.97;101372.30;1686951;83;21184;-63
2021/11/25 08:05:42;;;;;;;27.87;18.75;;;;;;;6.15;82.85;101374.80;1724141;80;21532;-67
2021/11/25 08:08:10;;;;;;;28.80;18.67;;;;;;;6.68;82.28;101370.30;1727879;80;21025;-66
2021/11/25 08:10:41;;;;;;;27.80;18.05;;;;;;;6.78;80.12;101365.98;1723850;80;21054;-68
2021/11/25 08:13:10;;;;;;;26.35;17.48;;;;;;;7.59;73.74;101365.05;1727879;80;21127;-62
2021/11/25 08:15:39;;;;;;;24.65;17.10;;;;;;;8.02;67.26;101365.90;1730910;80;21610;-72
2021/11/25 08:18:06;;;;;;;28.00;16.15;;;;;;;8.44;64.32;101359.06;1731529;80;20986;-62
2021/11/25 08:20:34;;;;;;;25.75;17.45;;;;;;;8.92;61.27;101356.75;1726310;80;21042;-72
2021/11/25 08:23:09;;;;;;;25.43;16.80;;;;;;;9.31;58.14;101353.42;1729786;82;22171;-63
2021/11/25 08:25:36;;;;;;;23.17;15.43;;;;;;;9.66;55.00;101350.47;1719305;80;20986;-68
2021/11/25 08:28:04;;;;;;;26.43;16.93;;;;;;;9.72;54.20;101342.08;1727771;80;21270;-60
2021/11/25 08:30:32;;;;;;;23.00;15.50;;;;;;;10.01;52.34;101343.61;1696017;82;21810;-71
2021/11/25 08:33:00;;;;;;;24.63;15.63;;;;;;;10.30;51.01;101340.21;1672201;83;21277;-61
2021/11/25 08:35:28;;;;;;;24.13;15.87;;;;;;;10.40;50.58;101327.89;1693123;84;21369;-71
2021/11/25 08:38:07;;;;;;;27.63;16.13;;;;;;;10.34;49.18;101336.81;1736794;80;21316;-61
2021/11/25 08:40:35;;;;;;;22.27;15.93;;;;;;;10.40;48.82;101337.02;1732674;80;21710;-61
2021/11/25 08:43:03;;;;;;;23.07;15.00;;;;;;;10.33;48.21;101332.09;1734734;81;21318;-62
2021/11/25 08:45:30;;;;;;;24.33;14.73;;;;;;;10.37;48.24;101333.90;1727191;80;21207;-60
2021/11/25 08:47:59;;;;;;;22.83;15.87;;;;;;;10.59;47.34;101336.45;1727996;80;21421;-60
2021/11/25 08:50:27;;;;;;;22.50;15.53;;;;;;;10.61;46.90;101331.92;1725547;80;21181;-60
2021/11/25 08:52:54;;;;;;;20.40;14.47;;;;;;;10.66;46.58;101332.25;1729539;80;21441;-61
2021/11/25 08:55:21;;;;;;;23.93;16.27;;;;;;;10.42;46.45;101335.09;1727091;80;21237;-71
2021/11/25 08:57:50;;;;;;;23.90;15.97;;;;;;;10.37;46.88;101336.02;1718779;80;22607;-63
2021/11/25 09:00:17;;;;;;;21.87;14.73;;;;;;;10.43;47.32;101335.41;1735560;82;21204;-65
2021/11/25 09:02:48;;;;;;;20.97;14.37;;;;;;;10.59;47.08;101325.53;1705579;83;21816;-63
2021/11/25 09:05:15;;;;;;;22.83;15.13;;;;;;;10.60;46.64;101329.77;1713838;83;22051;-76
2021/11/25 09:07:44;;;;;;;20.50;14.13;;;;;;;10.45;46.36;101323.52;1712294;81;21203;-64
2021/11/25 09:10:11;;;;;;;22.17;15.47;;;;;;;10.31;46.70;101330.14;1719561;83;21332;-63
2021/11/25 09:12:40;;;;;;;23.27;15.13;;;;;;;10.33;46.55;101325.57;1726541;82;21278;-62
2021/11/25 09:15:07;;;;;;;23.13;14.50;;;;;;;10.28;46.81;101324.42;1696673;83;21618;-61
2021/11/25 09:17:36;;;;;;;20.57;15.03;;;;;;;8.62;48.97;101331.37;1711708;82;21275;-65
2021/11/25 09:20:06;;;;;;;20.93;14.07;;;;;;;8.27;50.62;101338.03;1719443;82;21219;-62
2021/11/25 09:22:36;;;;;;;20.70;13.98;;;;;;;8.08;51.63;101333.38;1713304;82;21181;-60
2021/11/25 09:25:05;;;;;;;22.97;15.27;;;;;;;7.99;52.31;101337.61;1716701;82;21058;-59
2021/11/25 09:27:33;;;;;;;23.10;16.30;;;;;;;7.94;53.04;101339.33;1719053;82;21277;-61
2021/11/25 09:30:00;;;;;;;24.33;15.00;;;;;;;7.89;53.31;101330.34;1719552;82;21390;-75
2021/11/25 09:32:27;;;;;;;23.60;15.70;;;;;;;7.82;53.63;101338.34;1687950;83;21253;-60
2021/11/25 09:34:54;;;;;;;22.83;15.23;;;;;;;7.77;53.72;101334.38;1688229;83;21337;-61
2021/11/25 09:37:22;;;;;;;25.90;16.50;;;;;;;7.69;53.66;101330.36;1687525;83;21200;-77
2021/11/25 09:39:50;;;;;;;22.37;15.13;;;;;;;7.50;54.44;101336.83;1664654;83;21115;-60
2021/11/25 09:42:17;;;;;;;24.27;15.60;;;;;;;7.44;55.41;101329.13;1687650;83;21799;-73
2021/11/25 09:44:44;;;;;;;21.40;14.95;;;;;;;7.44;55.97;101326.53;1687700;83;22866;-64
2021/11/25 09:47:12;;;;;;;23.42;15.40;;;;;;;7.41;56.82;101326.80;1688083;83;21001;-67
2021/11/25 09:49:39;;;;;;;21.70;14.70;;;;;;;7.46;57.21;101323.34;1684307;83;21688;-60
2021/11/25 09:52:07;;;;;;;21.85;14.83;;;;;;;7.54;57.39;101319.58;1664947;83;21777;-71
2021/11/25 09:54:35;;;;;;;20.32;13.80;;;;;;;7.60;57.44;101314.30;1706474;82;21160;-63
2021/11/25 09:57:02;;;;;;;22.10;14.73;;;;;;;7.68;57.00;101313.61;1710321;82;21107;-60
2021/11/25 09:59:30;;;;;;;20.27;13.53;;;;;;;7.83;56.45;101307.52;1703780;82;21166;-62
2021/11/25 10:01:58;;;;;;;22.00;13.88;;;;;;;8.12;56.56;101300.97;1711958;81;21666;-60
2021/11/25 10:04:27;;;;;;;24.60;15.30;;;;;;;8.43;54.71;101293.78;1700495;81;21008;-66
2021/11/25 10:06:59;;;;;;;21.57;13.53;;;;;;;8.62;54.26;101287.19;1700003;82;21279;-60
2021/11/25 10:09:38;;;;;;;17.93;12.10;;;;;;;8.91;54.10;101284.42;1671644;82;21705;-63
2021/11/25 10:12:36;;;;;;;21.17;14.57;;;;;;;9.19;52.47;101278.67;1726133;80;21250;-63
2021/11/25 10:15:23;;;;;;;18.00;12.80;;;;;;;9.62;51.75;101280.16;1746044;80;21555;-61
2021/11/25 10:17:53;;;;;;;19.23;12.03;;;;;;;9.33;51.30;101272.62;1734994;79;21037;-66
2021/11/25 10:20:20;;;;;;;19.13;12.90;;;;;;;9.29;51.13;101273.41;1727499;80;21204;-62
2021/11/25 10:23:13;;;;;;;19.20;13.37;;;;;;;9.41;50.95;101274.80;1732097;80;21300;-61
2021/11/25 10:26:02;;;;;;;25.10;15.07;;;;;;;9.63;49.84;101271.40;1698443;81;21839;-59
2021/11/25 10:28:49;;;;;;;;;;;;;;;9.65;49.46;101262.94;1738872;80;21358;-63
2021/11/25 10:31:25;;;;;;;68.70;49.17;;;;;;;9.64;49.53;101263.91;1745007;80;20165;-61
2021/11/25 10:34:09;;;;;;;25.67;20.77;;;;;;;9.73;49.52;101262.50;1744946;80;21218;-63
2021/11/25 10:36:56;;;;;;;21.73;15.97;;;;;;;9.84;49.14;101256.23;1737429;82;21729;-61
2021/11/25 10:42:15;;;;;;;16.67;11.60;;;;;;;9.87;48.13;101253.32;1693690;83;21763;-75
2021/11/25 10:44:51;;;;;;;17.57;11.33;;;;;;;9.87;47.79;101247.30;1687075;84;21197;-62
2021/11/25 10:47:23;;;;;;;14.47;10.13;;;;;;;9.85;47.53;101241.41;1704091;82;21268;-74
2021/11/25 10:49:55;;;;;;;15.17;10.50;;;;;;;9.91;47.11;101242.92;1738953;80;21214;-62
2021/11/25 10:52:37;;;;;;;;;;;;;;;9.92;47.23;101243.73;1739068;80;21329;-62
2021/11/25 10:55:19;;;;;;;17.23;11.83;;;;;;;9.92;47.51;101235.92;1733583;82;20718;-71
2021/11/25 10:57:56;;;;;;;14.65;10.10;;;;;;;9.96;46.96;101238.09;1733766;82;21261;-63
2021/11/25 11:00:34;;;;;;;16.17;10.70;;;;;;;9.93;46.16;101233.19;1736572;81;21138;-60
2021/11/25 11:03:14;;;;;;;19.17;11.87;;;;;;;9.87;46.14;101229.07;1733341;81;21957;-59
2021/11/25 11:05:57;;;;;;;15.37;10.37;;;;;;;9.90;46.40;101229.58;1716212;82;21564;-61
2021/11/25 11:08:33;;;;;;;16.97;12.10;;;;;;;9.98;46.27;101226.20;1717298;83;21027;-67
2021/11/25 11:11:05;;;;;;;13.37;9.03;;;;;;;9.97;45.91;101221.48;1718162;81;21383;-70
2021/11/25 11:13:46;;;;;;;;;;;;;;;10.02;45.48;101217.59;1686178;83;21817;-61
2021/11/25 11:16:24;;;;;;;13.73;9.33;;;;;;;9.95;44.83;101217.39;1707727;83;20256;-66
2021/11/25 11:19:02;;;;;;;15.97;10.60;;;;;;;10.14;44.43;101217.64;1705673;83;21387;-67
2021/11/25 11:21:42;;;;;;;10.83;7.97;;;;;;;10.12;44.16;101210.48;1703139;83;21195;-60
2021/11/25 11:24:19;;;;;;;19.92;11.78;;;;;;;9.99;44.05;101213.02;1707996;81;21302;-65
2021/11/25 11:26:53;;;;;;;20.03;12.87;;;;;;;9.95;43.73;101210.39;1708193;83;21178;-64
2021/11/25 11:29:23;;;;;;;15.30;10.50;;;;;;;9.92;43.63;101209.39;1712231;83;21752;-61
2021/11/25 11:31:52;;;;;;;14.53;10.68;;;;;;;9.83;43.53;101212.13;1704441;83;21186;-60
2021/11/25 11:34:19;;;;;;;13.00;8.57;;;;;;;9.67;43.67;101198.53;1708735;81;21533;-63
2021/11/25 11:36:48;;;;;;;13.20;8.30;;;;;;;9.05;44.26;101210.75;1683926;85;21817;-61